Time;durP1;ratioP1;P1;durP2;ratioP2;P2;SDS_P1;SDS_P2;PMS_P1;PMS_P2;Temp;Humidity;BMP_temperature;BMP_pressure;BME280_temperature;BME280_humidity;BME280_pressure;Samples;Min_cycle;Max_cycle;Signal;HPM_P1;HPM_P2
2021/12/08 00:01:42;;;;;;;9.32;5.32;;;;;;;2.57;100.00;99357.69;5207821;28;20044;-76
2021/12/08 00:04:13;;;;;;;10.77;5.00;;;;;;;2.50;100.00;99350.94;5202333;28;20167;-77
2021/12/08 00:09:45;;;;;;;9.65;5.10;;;;;;;2.61;100.00;99335.22;5232766;28;20045;-81
2021/12/08 00:15:05;;;;;;;7.13;4.20;;;;;;;2.63;100.00;99328.28;5232459;28;19919;-80
2021/12/08 00:17:35;;;;;;;7.47;3.63;;;;;;;2.59;100.00;99316.38;5219577;28;20033;-79
2021/12/08 00:20:06;;;;;;;10.60;4.60;;;;;;;2.59;100.00;99313.78;5201863;28;20047;-81
2021/12/08 00:22:36;;;;;;;6.93;3.95;;;;;;;2.56;100.00;99312.16;5193807;28;20099;-81
2021/12/08 00:25:07;;;;;;;7.63;4.05;;;;;;;2.59;100.00;99311.22;5207414;28;20688;-80
2021/12/08 00:27:37;;;;;;;10.80;4.22;;;;;;;2.66;100.00;99313.59;5205621;28;20059;-80
2021/12/08 00:30:08;;;;;;;8.95;3.95;;;;;;;2.61;100.00;99317.16;5210791;28;20040;-79
2021/12/08 00:32:38;;;;;;;6.75;3.63;;;;;;;2.65;100.00;99321.41;5193235;28;20128;-80
2021/12/08 00:35:09;;;;;;;7.55;3.53;;;;;;;2.67;100.00;99333.34;5205845;28;20029;-81
2021/12/08 00:37:40;;;;;;;7.75;4.25;;;;;;;2.59;100.00;99314.66;5201026;28;20498;-80
2021/12/08 00:40:14;;;;;;;6.47;3.80;;;;;;;2.59;100.00;99313.78;5196660;28;20025;-79
2021/12/08 00:42:46;;;;;;;6.65;3.58;;;;;;;2.57;100.00;99310.41;5194816;28;20029;-79
2021/12/08 00:45:18;;;;;;;9.20;4.05;;;;;;;2.55;100.00;99309.59;5206857;28;20030;-80
2021/12/08 00:47:49;;;;;;;8.73;4.32;;;;;;;2.51;100.00;99323.44;5203158;28;20555;-79
2021/12/08 00:50:23;;;;;;;8.32;4.68;;;;;;;2.53;100.00;99309.63;5195591;28;20494;-79
2021/12/08 00:52:54;;;;;;;10.27;4.60;;;;;;;2.54;100.00;99313.06;5190238;28;20037;-80
2021/12/08 00:55:26;;;;;;;8.43;4.03;;;;;;;2.52;100.00;99305.34;5203736;28;20491;-80
2021/12/08 00:57:57;;;;;;;10.63;4.60;;;;;;;2.47;100.00;99308.94;5202369;28;20080;-80
2021/12/08 01:00:36;;;;;;;10.60;4.90;;;;;;;2.43;100.00;99299.56;5192990;28;20113;-80
2021/12/08 01:03:07;;;;;;;11.10;4.60;;;;;;;2.35;100.00;99293.75;5205245;28;20021;-80
2021/12/08 01:05:44;;;;;;;9.57;5.13;;;;;;;2.26;100.00;99306.84;5194105;28;20025;-80
2021/12/08 01:08:15;;;;;;;10.55;5.40;;;;;;;2.21;100.00;99300.94;5199465;28;20025;-80
2021/12/08 01:10:48;;;;;;;10.20;5.10;;;;;;;2.20;100.00;99296.69;5203225;28;20063;-80
2021/12/08 01:13:20;;;;;;;11.70;5.60;;;;;;;2.18;100.00;99294.13;5203425;28;20033;-80
2021/12/08 01:15:55;;;;;;;10.25;5.25;;;;;;;2.16;100.00;99292.50;5195943;28;20029;-80
2021/12/08 01:18:27;;;;;;;7.80;5.00;;;;;;;2.19;100.00;99295.00;5193700;28;20017;-80
2021/12/08 01:21:02;;;;;;;10.90;5.15;;;;;;;2.13;100.00;99295.16;5207511;28;20487;-80
2021/12/08 01:23:35;;;;;;;8.50;4.82;;;;;;;2.19;100.00;99303.56;5191063;28;20036;-80
2021/12/08 01:26:07;;;;;;;11.02;4.78;;;;;;;2.21;100.00;99300.94;5203706;28;20036;-80
2021/12/08 01:28:38;;;;;;;11.35;5.15;;;;;;;2.26;100.00;99296.53;5202592;28;20104;-79
2021/12/08 01:31:09;;;;;;;10.70;3.92;;;;;;;2.30;100.00;99288.72;5213053;28;20115;-79
2021/12/08 01:33:40;;;;;;;8.05;4.20;;;;;;;2.40;100.00;99292.78;5198634;28;20028;-80
2021/12/08 01:36:10;;;;;;;8.52;4.18;;;;;;;2.42;100.00;99290.13;5197210;28;20122;-79
2021/12/08 01:38:41;;;;;;;8.18;4.35;;;;;;;2.42;100.00;99297.88;5185992;28;20415;-80
2021/12/08 01:41:12;;;;;;;8.18;4.28;;;;;;;2.42;100.00;99290.13;5203303;28;20025;-80
2021/12/08 01:46:33;;;;;;;12.25;4.18;;;;;;;2.33;100.00;99282.66;5178258;28;20529;-80
2021/12/08 01:49:04;;;;;;;11.40;4.93;;;;;;;2.29;100.00;99273.25;5192947;28;20160;-79
2021/12/08 01:51:36;;;;;;;7.57;4.28;;;;;;;2.30;100.00;99265.50;5207922;28;20372;-80
2021/12/08 01:54:06;;;;;;;8.65;4.45;;;;;;;2.26;100.00;99250.16;5207235;28;20109;-80
2021/12/08 01:56:37;;;;;;;10.18;4.50;;;;;;;2.25;100.00;99236.44;5206891;28;20117;-80
2021/12/08 01:59:09;;;;;;;10.20;4.43;;;;;;;2.31;100.00;99240.59;5208324;28;20024;-80
2021/12/08 02:01:43;;;;;;;8.50;4.50;;;;;;;2.27;100.00;99218.34;5189379;28;20087;-79
2021/12/08 02:04:14;;;;;;;9.43;4.63;;;;;;;2.30;100.00;99208.00;5206177;28;20110;-79
2021/12/08 02:06:46;;;;;;;11.95;4.32;;;;;;;2.31;100.00;99212.25;5195827;28;20032;-79
2021/12/08 02:09:17;;;;;;;9.63;3.90;;;;;;;2.32;100.00;99206.22;5197285;28;20029;-79
2021/12/08 02:11:52;;;;;;;8.18;3.88;;;;;;;2.38;100.00;99206.06;5206345;28;20419;-79
2021/12/08 02:14:23;;;;;;;7.38;3.45;;;;;;;2.41;100.00;99200.81;5195999;28;20105;-80
2021/12/08 02:16:55;;;;;;;8.75;3.67;;;;;;;2.52;100.00;99215.13;5205996;28;20128;-80
2021/12/08 02:19:25;;;;;;;6.97;3.63;;;;;;;2.57;100.00;99191.81;5196471;28;20415;-80
2021/12/08 02:21:55;;;;;;;7.00;3.10;;;;;;;2.56;100.00;99190.13;5210714;28;20029;-80
2021/12/08 02:24:26;;;;;;;5.95;3.25;;;;;;;2.60;100.00;99171.09;5198381;28;20056;-79
2021/12/08 02:26:57;;;;;;;6.60;3.45;;;;;;;2.60;100.00;99174.53;5205831;28;20040;-79
2021/12/08 02:29:44;;;;;;;9.73;3.75;;;;;;;2.55;100.00;99158.34;5207739;28;20104;-79
2021/12/08 02:46:43;;;;;;;5.90;2.97;;;;;;;2.68;100.00;99145.97;5201581;28;20124;-79
2021/12/08 02:48:59;;;;;;;6.18;3.00;;;;;;;2.67;100.00;99105.59;5205609;28;20095;-79
2021/12/08 02:51:30;;;;;;;11.27;3.80;;;;;;;2.66;100.00;99106.50;5209989;28;20499;-80
2021/12/08 02:54:00;;;;;;;5.95;3.35;;;;;;;2.67;100.00;99110.75;5210131;28;20055;-79
2021/12/08 02:56:31;;;;;;;7.80;3.97;;;;;;;2.66;100.00;99114.22;5204484;28;20022;-79
2021/12/08 02:59:03;;;;;;;8.18;3.60;;;;;;;2.65;100.00;99128.84;5208045;28;20405;-80
2021/12/08 03:01:35;;;;;;;8.52;3.75;;;;;;;2.62;100.00;99112.59;5209849;28;20423;-80
2021/12/08 03:04:07;;;;;;;8.95;3.65;;;;;;;2.55;100.00;99123.97;5204608;28;20024;-79
2021/12/08 03:06:38;;;;;;;9.73;4.22;;;;;;;2.52;100.00;99142.09;5205442;28;20034;-79
2021/12/08 03:09:08;;;;;;;10.30;4.13;;;;;;;2.50;100.00;99139.56;5194658;28;20032;-79
2021/12/08 03:11:38;;;;;;;8.05;4.30;;;;;;;2.46;100.00;99155.13;5205351;28;20066;-79
2021/12/08 03:14:12;;;;;;;11.68;4.07;;;;;;;2.45;100.00;99150.88;5205156;28;20387;-79
2021/12/08 03:16:47;;;;;;;13.43;4.20;;;;;;;2.53;100.00;99159.25;5200939;28;20041;-79
2021/12/08 03:19:21;;;;;;;10.77;4.53;;;;;;;2.55;100.00;99150.63;5204765;28;20025;-79
2021/12/08 03:21:54;;;;;;;9.93;4.00;;;;;;;2.50;100.00;99157.59;5211258;28;20033;-80
2021/12/08 03:24:32;;;;;;;11.45;4.28;;;;;;;2.57;100.00;99148.84;5191112;28;20022;-79
2021/12/08 03:27:16;;;;;;;8.40;3.60;;;;;;;2.56;100.00;99147.16;5194613;28;20090;-79
2021/12/08 03:30:12;;;;;;;7.90;3.85;;;;;;;2.57;100.00;99155.72;5191311;28;20033;-79
2021/12/08 03:32:43;;;;;;;8.90;3.42;;;;;;;2.58;100.00;99157.41;5202510;28;20395;-79
2021/12/08 03:35:17;;;;;;;8.32;4.07;;;;;;;2.53;100.00;99147.22;5195051;28;20041;-79
2021/12/08 03:37:47;;;;;;;7.88;4.00;;;;;;;2.55;100.00;99163.50;5203427;28;20045;-79
2021/12/08 03:40:21;;;;;;;10.93;3.95;;;;;;;2.58;100.00;99152.25;5204443;28;20415;-80
2021/12/08 03:42:54;;;;;;;6.78;3.55;;;;;;;2.62;100.00;99159.88;5203510;28;20070;-79
2021/12/08 03:45:40;;;;;;;9.20;4.00;;;;;;;2.63;100.00;99160.69;5204378;28;20108;-79
2021/12/08 03:48:15;;;;;;;8.27;3.78;;;;;;;2.64;100.00;99157.22;5195581;28;20033;-79
2021/12/08 03:50:45;;;;;;;8.60;4.03;;;;;;;2.67;100.00;99167.50;5209374;28;20506;-80
2021/12/08 03:53:16;;;;;;;8.27;4.07;;;;;;;2.62;100.00;99152.13;5191347;28;20025;-79
2021/12/08 03:55:50;;;;;;;8.55;3.60;;;;;;;2.63;100.00;99163.28;5203951;28;20306;-79
2021/12/08 03:58:21;;;;;;;9.65;4.05;;;;;;;2.61;100.00;99165.06;5203331;28;20037;-80
2021/12/08 04:00:54;;;;;;;6.68;3.92;;;;;;;2.60;100.00;99163.38;5210299;28;20033;-80
2021/12/08 04:03:29;;;;;;;9.38;3.42;;;;;;;2.57;100.00;99156.56;5192513;28;20439;-79
2021/12/08 04:06:06;;;;;;;8.82;3.67;;;;;;;2.58;100.00;99152.25;5204016;28;20029;-79
2021/12/08 04:08:43;;;;;;;8.13;4.00;;;;;;;2.60;100.00;99150.47;5203528;28;20441;-79
2021/12/08 04:11:13;;;;;;;6.50;3.65;;;;;;;2.51;100.00;99153.31;5199923;28;20120;-79
2021/12/08 04:13:54;;;;;;;9.73;4.60;;;;;;;2.47;100.00;99154.28;5203642;28;20037;-79
2021/12/08 04:16:34;;;;;;;7.93;3.60;;;;;;;2.45;100.00;99151.72;5202789;28;20037;-80
2021/12/08 04:19:06;;;;;;;9.38;4.03;;;;;;;2.42;100.00;99151.81;5194111;28;20048;-80
2021/12/08 04:21:39;;;;;;;8.57;4.82;;;;;;;2.24;100.00;99151.44;5193964;28;20049;-79
2021/12/08 04:24:11;;;;;;;9.82;4.25;;;;;;;2.24;100.00;99146.28;5205702;28;20060;-79
2021/12/08 04:26:49;;;;;;;7.15;4.05;;;;;;;2.20;100.00;99144.66;5203763;28;20033;-79
2021/12/08 04:29:24;;;;;;;9.55;4.60;;;;;;;2.15;100.00;99142.19;5205126;28;20028;-79
2021/12/08 04:31:56;;;;;;;13.93;4.45;;;;;;;2.16;100.00;99145.63;5192324;28;20021;-80
2021/12/08 04:34:32;;;;;;;12.38;4.32;;;;;;;2.17;100.00;99149.91;5194008;28;20052;-80
2021/12/08 04:37:16;;;;;;;9.15;3.78;;;;;;;2.21;100.00;99156.66;5193652;28;20068;-80
2021/12/08 04:42:34;;;;;;;10.80;4.38;;;;;;;2.24;100.00;99151.44;5203661;28;20378;-79
2021/12/08 04:45:13;;;;;;;7.63;4.22;;;;;;;2.28;100.00;99150.47;5197771;28;20470;-80
2021/12/08 04:48:06;;;;;;;10.25;4.78;;;;;;;2.28;100.00;99153.03;5200171;28;20040;-80
2021/12/08 04:53:35;;;;;;;10.20;4.57;;;;;;;2.21;100.00;99166.97;5207719;28;20498;-79
2021/12/08 05:07:49;;;;;;;11.95;4.93;;;;;;;2.16;100.00;99166.25;5202768;28;20036;-79
2021/12/08 05:10:32;;;;;;;9.63;4.65;;;;;;;2.07;100.00;99182.78;5201630;28;20053;-79
2021/12/08 05:13:07;;;;;;;13.45;5.18;;;;;;;2.03;100.00;99180.31;5203502;28;20156;-79
2021/12/08 05:15:42;;;;;;;10.55;5.00;;;;;;;1.91;100.00;99185.72;5204600;28;20045;-80
2021/12/08 05:18:20;;;;;;;10.13;4.85;;;;;;;1.86;100.00;99187.56;5187658;28;20412;-79
2021/12/08 05:21:21;;;;;;;9.40;5.05;;;;;;;1.78;100.00;99174.88;5188918;28;20061;-79
2021/12/08 05:24:06;;;;;;;10.85;4.53;;;;;;;1.79;100.00;99186.03;5190535;28;20029;-79
2021/12/08 05:26:45;;;;;;;9.85;5.13;;;;;;;1.76;100.00;99183.50;5203544;28;20049;-79
2021/12/08 05:29:39;;;;;;;10.07;5.20;;;;;;;1.74;100.00;99179.28;5205609;28;20028;-79
2021/12/08 05:32:10;;;;;;;11.13;4.53;;;;;;;1.72;100.00;99174.16;5212425;28;20033;-79
2021/12/08 05:34:42;;;;;;;10.15;5.20;;;;;;;1.63;100.00;99170.97;5198040;28;20556;-79
2021/12/08 05:37:15;;;;;;;10.30;4.57;;;;;;;1.66;100.00;99174.31;5198252;28;20072;-79
2021/12/08 05:39:46;;;;;;;10.10;5.00;;;;;;;1.64;100.00;99173.50;5198223;28;20526;-79
2021/12/08 05:42:20;;;;;;;10.02;4.97;;;;;;;1.65;100.00;99176.91;5198031;28;20045;-79
2021/12/08 05:44:51;;;;;;;11.67;5.00;;;;;;;1.59;100.00;99184.78;5199971;28;20051;-79
2021/12/08 05:47:28;;;;;;;12.25;5.43;;;;;;;1.57;100.00;99189.13;5208745;28;20112;-79
2021/12/08 05:49:58;;;;;;;10.40;4.60;;;;;;;1.52;100.00;99188.34;5208565;28;20403;-79
2021/12/08 05:52:29;;;;;;;10.00;4.47;;;;;;;1.49;100.00;99198.72;5192905;28;20312;-79
2021/12/08 05:54:59;;;;;;;9.98;4.72;;;;;;;1.49;100.00;99206.44;5196905;28;20036;-79
2021/12/08 05:57:35;;;;;;;14.43;4.97;;;;;;;1.50;100.00;99201.28;5206732;28;20072;-79
2021/12/08 06:00:24;;;;;;;9.38;5.07;;;;;;;1.48;100.00;99189.31;5197240;28;20411;-79
2021/12/08 06:02:55;;;;;;;9.02;5.07;;;;;;;1.49;100.00;99199.59;5207585;28;20403;-79
2021/12/08 06:05:27;;;;;;;11.10;5.47;;;;;;;1.46;100.00;99199.66;5204041;28;20686;-79
2021/12/08 06:07:58;;;;;;;12.65;5.20;;;;;;;1.52;100.00;99191.78;5210685;23;20029;-80
2021/12/08 06:10:35;;;;;;;12.18;5.32;;;;;;;1.52;100.00;99188.34;5234148;28;20039;-79
2021/12/08 06:13:08;;;;;;;14.20;5.60;;;;;;;1.51;100.00;99182.38;5229043;28;20394;-79
2021/12/08 06:15:41;;;;;;;13.38;5.28;;;;;;;1.49;100.00;99179.00;5226193;28;20040;-80
2021/12/08 06:18:13;;;;;;;10.65;5.43;;;;;;;1.53;100.00;99187.47;5214988;28;20109;-80
2021/12/08 06:20:43;;;;;;;9.82;5.10;;;;;;;1.45;100.00;99172.22;5207567;28;20397;-79
2021/12/08 06:23:14;;;;;;;11.68;5.40;;;;;;;1.51;100.00;99169.50;5210973;28;20026;-79
2021/12/08 06:25:44;;;;;;;12.35;5.82;;;;;;;1.51;100.00;99172.09;5208971;28;20057;-81
2021/12/08 06:28:15;;;;;;;13.85;6.15;;;;;;;1.56;100.00;99162.53;5206823;28;20071;-80
2021/12/08 06:30:46;;;;;;;13.00;5.78;;;;;;;1.55;100.00;99163.41;5211897;28;20036;-81
2021/12/08 06:33:20;;;;;;;10.93;5.25;;;;;;;1.59;100.00;99159.88;5211254;28;20033;-81
2021/12/08 06:35:55;;;;;;;13.55;6.03;;;;;;;1.58;100.00;99149.63;5207116;28;20088;-81
2021/12/08 06:38:26;;;;;;;12.52;5.78;;;;;;;1.60;100.00;99140.13;5207610;28;20021;-80
2021/12/08 06:41:12;;;;;;;9.43;5.18;;;;;;;1.63;100.00;99133.22;5207770;28;20041;-82
2021/12/08 06:43:49;;;;;;;10.55;5.32;;;;;;;1.64;100.00;99142.63;5207404;28;20734;-78
2021/12/08 06:46:21;;;;;;;12.82;5.43;;;;;;;1.68;100.00;99136.50;5209121;28;20116;-80
2021/12/08 06:48:54;;;;;;;13.05;5.85;;;;;;;1.69;100.00;99133.06;5208325;28;20068;-81
2021/12/08 06:51:37;;;;;;;11.95;5.43;;;;;;;1.75;100.00;99132.91;5212708;28;20530;-80
2021/12/08 06:54:13;;;;;;;13.38;5.18;;;;;;;1.80;100.00;99143.97;5209582;28;20501;-81
2021/12/08 06:56:50;;;;;;;12.75;5.53;;;;;;;1.79;100.00;99143.09;5203791;28;20029;-81
2021/12/08 06:59:26;;;;;;;11.75;5.25;;;;;;;1.81;100.00;99135.34;5208927;28;20601;-80
2021/12/08 07:02:09;;;;;;;12.48;5.30;;;;;;;1.87;100.00;99137.75;5210136;28;20033;-81
2021/12/08 07:05:10;;;;;;;12.32;5.40;;;;;;;1.91;100.00;99142.81;5201338;28;20022;-79
2021/12/08 07:07:43;;;;;;;11.30;4.47;;;;;;;1.95;100.00;99139.28;5204396;28;20094;-81
2021/12/08 07:10:21;;;;;;;13.40;5.35;;;;;;;1.92;100.00;99153.94;5204523;28;20052;-80
2021/12/08 07:12:59;;;;;;;12.18;4.95;;;;;;;1.92;100.00;99148.78;5205737;28;20029;-79
2021/12/08 07:15:41;;;;;;;11.93;4.90;;;;;;;1.94;100.00;99141.88;5204046;28;20068;-79
2021/12/08 07:18:16;;;;;;;12.65;5.40;;;;;;;1.88;100.00;99157.47;5199752;28;20028;-79
2021/12/08 07:20:51;;;;;;;10.32;5.32;;;;;;;1.87;100.00;99164.38;5206621;28;20068;-79
2021/12/08 07:23:26;;;;;;;11.00;5.68;;;;;;;1.90;100.00;99176.31;5204948;28;20030;-81
2021/12/08 07:25:58;;;;;;;12.82;5.85;;;;;;;1.90;100.00;99176.31;5204366;28;20033;-81
2021/12/08 07:28:28;;;;;;;13.40;5.90;;;;;;;1.86;100.00;99164.41;5207494;28;20036;-81
2021/12/08 07:31:04;;;;;;;12.75;5.57;;;;;;;1.90;100.00;99166.00;5211795;28;20033;-81
2021/12/08 07:33:34;;;;;;;16.92;5.85;;;;;;;1.93;100.00;99161.66;5207030;28;20028;-81
2021/12/08 07:36:10;;;;;;;10.27;5.40;;;;;;;1.92;100.00;99164.25;5204638;28;20029;-81
2021/12/08 07:38:42;;;;;;;14.63;5.70;;;;;;;1.93;100.00;99176.22;5204356;28;20083;-79
2021/12/08 07:41:19;;;;;;;14.00;5.70;;;;;;;1.96;100.00;99176.19;5206385;28;20052;-81
2021/12/08 07:43:53;;;;;;;12.98;5.85;;;;;;;1.93;100.00;99165.94;5206062;28;20031;-80
2021/12/08 07:46:35;;;;;;;11.63;5.03;;;;;;;1.94;100.00;99165.06;5206519;28;20017;-78
2021/12/08 07:49:24;;;;;;;11.27;5.43;;;;;;;1.90;100.00;99172.03;5205836;28;20127;-80
2021/12/08 07:52:05;;;;;;;15.32;5.43;;;;;;;1.93;100.00;99173.66;5209202;28;20033;-80
2021/12/08 07:54:36;;;;;;;11.38;5.28;;;;;;;1.98;100.00;99179.56;5204583;28;20462;-80
2021/12/08 07:57:16;;;;;;;12.95;5.57;;;;;;;1.99;100.00;99194.97;5204414;28;20037;-79
2021/12/08 07:59:49;;;;;;;11.15;5.15;;;;;;;2.05;100.00;99202.56;5202892;28;20387;-79
2021/12/08 08:02:25;;;;;;;11.50;4.72;;;;;;;2.09;100.00;99201.63;5207449;28;20044;-81
2021/12/08 08:04:59;;;;;;;14.60;5.03;;;;;;;2.10;100.00;99199.88;5202966;28;20296;-79
2021/12/08 08:07:31;;;;;;;10.18;4.88;;;;;;;2.08;100.00;99194.78;5204314;28;20079;-80
2021/12/08 08:10:04;;;;;;;10.45;5.60;;;;;;;2.08;100.00;99201.63;5202342;28;20029;-78
2021/12/08 08:12:34;;;;;;;12.88;5.40;;;;;;;2.11;100.00;99204.13;5203058;28;20044;-79
2021/12/08 08:15:10;;;;;;;10.55;4.78;;;;;;;2.08;100.00;99211.94;5203329;28;20059;-78
2021/12/08 08:17:44;;;;;;;11.23;5.18;;;;;;;2.19;100.00;99207.38;5199735;28;20036;-79
2021/12/08 08:20:23;;;;;;;13.98;4.75;;;;;;;2.14;100.00;99207.50;5205015;28;20032;-78
2021/12/08 08:22:55;;;;;;;8.25;4.30;;;;;;;2.19;100.00;99222.84;5204519;28;20033;-78
2021/12/08 08:25:30;;;;;;;10.30;4.18;;;;;;;2.24;100.00;99221.00;5200349;28;20513;-78
2021/12/08 08:28:01;;;;;;;12.32;4.88;;;;;;;2.19;100.00;99225.44;5203829;28;20407;-80
2021/12/08 08:30:41;;;;;;;12.45;5.85;;;;;;;2.21;100.00;99215.94;5210000;28;20345;-80
2021/12/08 08:33:13;;;;;;;8.70;4.68;;;;;;;2.18;100.00;99213.44;5204178;28;20129;-80
2021/12/08 08:35:56;;;;;;;12.90;5.63;;;;;;;2.20;100.00;99211.66;5203559;28;20029;-80
2021/12/08 08:38:31;;;;;;;11.77;4.95;;;;;;;2.24;100.00;99215.84;5205523;28;20029;-79
2021/12/08 08:41:15;;;;;;;14.65;5.55;;;;;;;2.25;100.00;99204.66;5203977;28;20036;-80
2021/12/08 08:43:48;;;;;;;11.30;5.40;;;;;;;2.33;100.00;99205.34;5200939;28;20033;-80
2021/12/08 08:46:27;;;;;;;11.73;4.65;;;;;;;2.40;100.00;99204.28;5203476;28;20037;-81
2021/12/08 08:49:02;;;;;;;10.65;4.68;;;;;;;2.43;100.00;99204.19;5204722;28;20033;-79
2021/12/08 08:51:39;;;;;;;12.90;5.07;;;;;;;2.42;100.00;99192.19;5206937;28;20038;-81
2021/12/08 08:54:14;;;;;;;12.73;4.85;;;;;;;2.39;100.00;99193.13;5203701;28;20029;-81
2021/12/08 08:56:53;;;;;;;11.63;4.82;;;;;;;2.45;100.00;99211.03;5201809;28;20033;-79
2021/12/08 08:59:30;;;;;;;8.02;4.15;;;;;;;2.47;100.00;99211.00;5204807;28;20144;-79
2021/12/08 09:02:08;;;;;;;8.07;4.22;;;;;;;2.49;100.00;99224.69;5208781;28;20025;-78
2021/12/08 09:04:43;;;;;;;8.98;3.72;;;;;;;2.51;100.00;99228.91;5206949;28;20044;-79
2021/12/08 09:07:21;;;;;;;10.45;4.32;;;;;;;2.49;100.00;99222.09;5203431;28;20350;-81
2021/12/08 09:09:56;;;;;;;10.65;4.72;;;;;;;2.56;100.00;99226.22;5206065;28;20037;-81
2021/12/08 09:12:38;;;;;;;7.93;3.92;;;;;;;2.59;100.00;99221.84;5205563;28;20025;-80
2021/12/08 09:15:16;;;;;;;11.15;3.92;;;;;;;2.64;100.00;99219.09;5205928;28;20045;-80
2021/12/08 09:18:18;;;;;;;7.43;3.42;;;;;;;2.70;100.00;99206.91;5202522;28;20037;-80
2021/12/08 09:21:08;;;;;;;7.75;3.45;;;;;;;2.85;100.00;99213.41;5204097;28;20406;-79
2021/12/08 09:24:07;;;;;;;8.35;4.13;;;;;;;2.81;100.00;99212.66;5203244;28;20098;-80
2021/12/08 09:26:42;;;;;;;9.65;3.97;;;;;;;2.81;100.00;99192.00;5204741;28;20048;-78
2021/12/08 09:29:20;;;;;;;9.95;4.30;;;;;;;2.70;100.00;99188.03;5203261;28;20021;-80
2021/12/08 09:32:03;;;;;;;8.27;3.50;;;;;;;2.65;100.00;99192.47;5212006;28;20045;-81
2021/12/08 09:34:39;;;;;;;14.43;4.10;;;;;;;2.73;100.00;99186.22;5208635;28;20033;-81
2021/12/08 09:37:13;;;;;;;11.20;4.28;;;;;;;2.71;100.00;99195.72;5203667;28;20030;-81
2021/12/08 09:40:10;;;;;;;7.93;3.60;;;;;;;2.74;100.00;99200.81;5206302;28;20029;-79
2021/12/08 09:42:46;;;;;;;6.55;3.10;;;;;;;2.79;100.00;99200.66;5201009;28;20061;-81
2021/12/08 09:46:06;;;;;;;7.75;3.88;;;;;;;2.83;100.00;99204.88;5206917;28;20045;-82
2021/12/08 09:48:39;;;;;;;7.50;3.33;;;;;;;2.87;100.00;99206.47;5202295;28;20052;-79
2021/12/08 09:51:12;;;;;;;6.63;3.20;;;;;;;2.82;100.00;99218.66;5209573;28;20044;-80
2021/12/08 09:53:44;;;;;;;8.60;3.50;;;;;;;2.81;100.00;99220.38;5208254;28;20025;-78
2021/12/08 09:56:16;;;;;;;7.97;3.33;;;;;;;2.86;100.00;99212.53;5207718;28;20032;-82
2021/12/08 09:58:46;;;;;;;6.97;3.50;;;;;;;2.95;100.00;99214.84;5207804;28;20093;-80
2021/12/08 10:01:20;;;;;;;8.20;2.80;;;;;;;3.03;100.00;99218.09;5211925;28;20124;-80
2021/12/08 10:03:52;;;;;;;6.28;3.33;;;;;;;2.99;100.00;99216.47;5204001;28;20036;-80
2021/12/08 10:06:24;;;;;;;8.95;3.45;;;;;;;3.04;100.00;99199.97;5204100;28;20021;-79
2021/12/08 10:08:57;;;;;;;5.43;2.90;;;;;;;3.06;100.00;99193.03;5206158;28;20434;-79
2021/12/08 10:11:30;;;;;;;9.98;4.10;;;;;;;3.12;100.00;99186.84;5205997;28;20057;-80
2021/12/08 10:14:02;;;;;;;7.53;3.15;;;;;;;3.08;100.00;99191.28;5203276;28;20025;-79
2021/12/08 10:16:33;;;;;;;9.15;3.15;;;;;;;3.02;100.00;99180.28;5205432;28;20321;-80
2021/12/08 10:19:05;;;;;;;5.40;2.90;;;;;;;3.06;100.00;99181.88;5205141;28;20475;-80
2021/12/08 10:21:40;;;;;;;8.13;3.22;;;;;;;3.05;100.00;99172.44;5210026;28;20040;-79
2021/12/08 10:24:22;;;;;;;6.60;2.88;;;;;;;3.06;100.00;99176.72;5206270;28;20054;-79
2021/12/08 10:27:03;;;;;;;10.57;3.03;;;;;;;3.14;100.00;99161.84;5203612;28;20068;-79
2021/12/08 10:29:34;;;;;;;5.38;2.90;;;;;;;3.08;100.00;99164.59;5206055;28;20036;-80
2021/12/08 10:32:05;;;;;;;6.18;3.33;;;;;;;2.94;100.00;99161.56;5210242;28;20474;-80
2021/12/08 10:34:52;;;;;;;7.07;3.30;;;;;;;2.97;100.00;99152.00;5208495;28;20108;-79
2021/12/08 10:37:23;;;;;;;6.05;3.03;;;;;;;2.89;100.00;99163.44;5203991;28;20041;-79
2021/12/08 10:39:56;;;;;;;6.07;3.08;;;;;;;2.88;100.00;99166.91;5206747;28;20092;-79
2021/12/08 10:42:31;;;;;;;5.88;3.28;;;;;;;2.91;100.00;99167.66;5206445;28;20047;-80
2021/12/08 10:45:09;;;;;;;;;;;;;;;3.00;100.00;99169.97;5206840;28;20033;-79
2021/12/08 10:47:48;;;;;;;6.43;3.33;;;;;;;3.04;100.00;99175.91;5202421;28;19924;-79
2021/12/08 10:56:08;;;;;;;6.88;3.50;;;;;;;3.24;100.00;99191.66;5206959;28;20390;-80
2021/12/08 10:58:43;;;;;;;6.80;3.13;;;;;;;3.13;100.00;99207.47;5205078;28;20075;-81
2021/12/08 11:01:20;;;;;;;8.13;3.33;;;;;;;3.20;100.00;99203.81;5215384;28;20049;-81
2021/12/08 11:03:59;;;;;;;7.68;3.78;;;;;;;3.05;100.00;99190.50;5207911;28;20281;-80
2021/12/08 11:06:32;;;;;;;8.48;3.80;;;;;;;3.07;100.00;99193.88;5206381;28;20025;-80
2021/12/08 11:09:11;;;;;;;7.68;3.80;;;;;;;3.11;100.00;99180.00;5205154;28;20026;-79
2021/12/08 11:11:44;;;;;;;6.50;3.72;;;;;;;3.21;100.00;99181.44;5203836;28;20072;-81
2021/12/08 11:14:14;;;;;;;8.15;3.72;;;;;;;3.22;100.00;99183.13;5203584;28;20053;-79
2021/12/08 11:16:44;;;;;;;7.22;3.90;;;;;;;3.32;100.00;99181.97;5203171;28;20065;-79
2021/12/08 11:19:20;;;;;;;8.40;4.45;;;;;;;3.34;100.00;99187.94;5203282;28;20021;-79
2021/12/08 11:21:55;;;;;;;11.23;4.45;;;;;;;3.46;100.00;99203.06;5210982;28;20089;-79
2021/12/08 11:24:33;;;;;;;10.32;4.28;;;;;;;3.54;100.00;99206.28;5204449;28;20014;-81
2021/12/08 11:27:09;;;;;;;9.55;3.80;;;;;;;3.66;100.00;99205.03;5204789;28;20042;-81
2021/12/08 11:29:42;;;;;;;7.20;3.50;;;;;;;3.69;100.00;99189.44;5212923;28;20667;-81
2021/12/08 11:32:15;;;;;;;6.35;3.45;;;;;;;3.60;100.00;99181.13;5209744;28;20120;-81
2021/12/08 11:34:47;;;;;;;7.25;3.60;;;;;;;3.64;100.00;99199.03;5206699;28;20025;-81
2021/12/08 11:37:22;;;;;;;9.57;3.35;;;;;;;3.60;100.00;99194.88;5208526;28;20055;-81
2021/12/08 11:39:58;;;;;;;9.07;3.47;;;;;;;3.64;100.00;99204.22;5208406;28;20021;-81
2021/12/08 11:42:33;;;;;;;6.60;3.28;;;;;;;3.73;100.00;99208.25;5207841;28;20037;-81
2021/12/08 11:45:13;;;;;;;8.35;3.17;;;;;;;3.75;100.00;99215.06;5211105;28;20032;-81
2021/12/08 11:47:44;;;;;;;6.30;3.40;;;;;;;3.88;100.00;99207.78;5207247;28;20072;-81
2021/12/08 11:50:22;;;;;;;8.25;3.70;;;;;;;3.97;100.00;99187.69;5212290;28;20502;-82
2021/12/08 11:52:54;;;;;;;6.20;3.28;;;;;;;3.93;100.00;99201.59;5214985;28;20030;-81
2021/12/08 11:55:25;;;;;;;7.60;3.40;;;;;;;3.81;100.00;99204.53;5211517;28;20040;-82
2021/12/08 11:57:57;;;;;;;7.05;3.20;;;;;;;3.79;100.00;99201.16;5211559;28;20032;-81
2021/12/08 12:00:37;;;;;;;7.45;3.40;;;;;;;3.68;100.00;99199.81;5216768;28;20021;-80
2021/12/08 12:03:10;;;;;;;7.07;3.00;;;;;;;3.69;100.00;99217.84;5213410;28;20096;-80
2021/12/08 12:05:47;;;;;;;6.75;3.03;;;;;;;3.62;100.00;99223.25;5209577;28;20048;-81
2021/12/08 12:08:24;;;;;;;8.23;3.50;;;;;;;3.64;100.00;99219.72;5225606;22;20055;-77
2021/12/08 12:10:56;;;;;;;9.23;3.83;;;;;;;3.84;100.00;99222.56;5216498;28;20383;-77
2021/12/08 12:13:27;;;;;;;5.88;3.30;;;;;;;3.84;100.00;99219.97;5207029;28;20032;-78
2021/12/08 12:15:57;;;;;;;5.38;2.85;;;;;;;4.00;100.00;99225.50;5205748;28;20033;-76
2021/12/08 12:18:32;;;;;;;7.00;3.20;;;;;;;3.95;100.00;99220.47;5203631;28;20041;-77
2021/12/08 12:21:12;;;;;;;;;;;;;;;3.93;100.00;99235.19;5207735;28;20025;-77
2021/12/08 12:23:51;;;;;;;5.68;3.08;;;;;;;4.04;100.00;99232.28;5204104;28;19913;-78
2021/12/08 12:26:59;;;;;;;7.72;3.03;;;;;;;4.04;100.00;99232.28;5199896;28;20119;-77
2021/12/08 12:29:56;;;;;;;6.20;2.88;;;;;;;3.98;100.00;99232.47;5202726;28;20568;-78
2021/12/08 12:32:32;;;;;;;7.70;3.42;;;;;;;3.88;100.00;99233.63;5206441;28;20363;-77
2021/12/08 12:35:27;;;;;;;8.45;3.20;;;;;;;3.88;100.00;99219.00;5203180;28;20026;-78
2021/12/08 12:38:08;;;;;;;7.47;3.10;;;;;;;3.93;100.00;99222.25;5199673;28;20550;-77
2021/12/08 12:40:47;;;;;;;6.55;3.00;;;;;;;3.86;100.00;99220.78;5205020;28;20053;-77
2021/12/08 12:43:28;;;;;;;8.65;2.85;;;;;;;3.83;100.00;99212.25;5206479;28;20503;-78
2021/12/08 12:46:07;;;;;;;6.82;3.08;;;;;;;3.80;100.00;99208.03;5206006;28;20044;-77
2021/12/08 12:48:37;;;;;;;7.57;3.20;;;;;;;3.88;100.00;99206.06;5202085;28;20044;-78
2021/12/08 12:51:14;;;;;;;7.90;3.08;;;;;;;3.75;100.00;99211.66;5204057;28;20395;-78
2021/12/08 12:53:53;;;;;;;8.77;3.20;;;;;;;4.00;100.00;99220.34;5202217;28;20213;-78